« Back
NWS Peachtree City, Ga » Text Product » AHN Terminal Aerodrome Forecast


Printer-friendly Version
Current Version              Previous Versions:   1  2  3  4  5  6  7  8  9  

Terminal Aerodrome Forecast

421
FTAK31 PAJN 231100
TAFAHN
TAF
PAHN 231120Z 2312/2412 VRB04KT P6SM VCSH OVC008
     FM231800 12006KT 6SM -SHRA BR SCT015 OVC025
     FM240600 VRB04KT P6SM VCSH OVC030
      AMD LTD TO CLD VIS AND WIND=

USA.gov is the U.S. government's official web portal to all federal, state and local government web resources and services.